createdAt,value
2022-09-18T00:02:56.337Z,89.06
2022-09-18T00:05:58.306Z,89.66
2022-09-18T00:09:02.148Z,89.28
2022-09-18T00:12:04.413Z,87.83
2022-09-18T00:15:07.841Z,87.06
2022-09-18T00:18:09.884Z,87.43
2022-09-18T00:21:18.651Z,87.25
2022-09-18T00:24:22.340Z,88.94
2022-09-18T00:27:24.705Z,88.29
2022-09-18T00:30:26.702Z,87.83
2022-09-18T00:33:29.025Z,87.89
2022-09-18T00:36:31.191Z,88.41
2022-09-18T00:39:33.467Z,88.76
2022-09-18T00:42:35.517Z,89.31
2022-09-18T00:45:37.839Z,89.32
2022-09-18T00:49:10.871Z,89.27
2022-09-18T00:52:14.276Z,89.71
2022-09-18T00:55:19.402Z,89.98
2022-09-18T00:58:22.181Z,90.96
2022-09-18T01:01:25.614Z,90.98
2022-09-18T01:04:28.887Z,91.31
2022-09-18T01:07:52.968Z,91.34
2022-09-18T01:11:13.692Z,91.39
2022-09-18T01:14:27.840Z,91.73
2022-09-18T01:17:54.976Z,91.91
2022-09-18T01:21:16.640Z,93.15
2022-09-18T01:24:21.859Z,94.71
2022-09-18T01:27:52.066Z,94.33
2022-09-18T01:30:59.190Z,92.90
2022-09-18T01:34:04.200Z,91.99
2022-09-18T01:37:45.349Z,92.61
2022-09-18T01:40:48.530Z,92.95
2022-09-18T01:44:10.217Z,92.44
2022-09-18T01:47:14.332Z,92.52
2022-09-18T01:50:17.877Z,93.12
2022-09-18T01:53:28.532Z,92.89
2022-09-18T01:56:36.325Z,93.14
2022-09-18T01:59:44.038Z,93.43
2022-09-18T02:02:52.287Z,92.94
2022-09-18T02:06:03.788Z,92.26
2022-09-18T02:09:09.331Z,92.48
2022-09-18T02:12:14.551Z,92.89
2022-09-18T02:15:17.124Z,93.18
2022-09-18T02:18:42.419Z,93.55
2022-09-18T02:21:46.601Z,93.53
2022-09-18T02:24:50.944Z,94.22
2022-09-18T02:27:54.936Z,94.07
2022-09-18T02:30:58.532Z,94.82
2022-09-18T02:34:00.835Z,93.76
2022-09-18T02:37:24.305Z,92.98
2022-09-18T02:40:31.410Z,94.91
2022-09-18T02:43:55.062Z,93.67
2022-09-18T02:47:15.344Z,93.21
2022-09-18T02:50:50.817Z,92.75
2022-09-18T02:54:16.214Z,95.04
2022-09-18T02:57:24.288Z,94.84
2022-09-18T03:00:27.872Z,95.75
2022-09-18T03:03:32.274Z,95.03
2022-09-18T03:06:38.216Z,94.61
2022-09-18T03:09:40.449Z,95.55
2022-09-18T03:12:42.985Z,94.83
2022-09-18T03:15:45.168Z,93.82
2022-09-18T03:18:47.545Z,94.04
2022-09-18T03:21:51.247Z,92.76
2022-09-18T03:24:56.204Z,91.98
2022-09-18T03:27:58.537Z,91.24
2022-09-18T03:31:11.708Z,91.11
2022-09-18T03:34:13.859Z,91.10
2022-09-18T03:37:16.346Z,90.55
2022-09-18T03:40:20.286Z,90.90
2022-09-18T03:43:23.733Z,90.54
2022-09-18T03:46:25.955Z,90.48
2022-09-18T03:49:32.506Z,91.77
2022-09-18T03:52:34.657Z,91.74
2022-09-18T03:55:46.828Z,93.38
2022-09-18T03:59:21.001Z,93.09
2022-09-18T04:02:37.454Z,93.68
2022-09-18T04:05:58.024Z,94.10
2022-09-18T04:09:32.286Z,93.16
2022-09-18T04:12:34.835Z,92.75
2022-09-18T04:15:55.448Z,94.23
2022-09-18T04:18:57.797Z,93.59
2022-09-18T04:22:00.083Z,95.03
2022-09-18T04:25:03.418Z,94.12
2022-09-18T04:28:06.049Z,95.90
2022-09-18T04:31:13.050Z,96.83
2022-09-18T04:34:15.978Z,96.98
2022-09-18T04:37:18.199Z,99.11
2022-09-18T04:40:22.177Z,98.59
2022-09-18T04:43:25.878Z,98.58
2022-09-18T04:46:28.783Z,98.21
2022-09-18T04:49:30.705Z,97.34
2022-09-18T04:52:33.043Z,97.06
2022-09-18T04:55:36.675Z,97.07
2022-09-18T04:58:38.937Z,96.67
2022-09-18T05:01:41.253Z,96.53
2022-09-18T05:04:46.842Z,97.21
2022-09-18T05:08:04.584Z,97.95
2022-09-18T05:11:06.936Z,98.19
2022-09-18T05:14:12.911Z,97.65
2022-09-18T05:17:19.076Z,97.43
2022-09-18T05:20:34.954Z,99.25
2022-09-18T05:23:42.567Z,98.76
2022-09-18T05:26:45.666Z,97.88
2022-09-18T05:29:48.075Z,97.83
2022-09-18T05:33:03.981Z,98.43
2022-09-18T05:36:07.002Z,99.43
2022-09-18T05:39:13.070Z,98.78
2022-09-18T05:42:17.743Z,98.48
2022-09-18T05:45:20.663Z,97.66
2022-09-18T05:48:24.387Z,98.14
2022-09-18T05:51:26.530Z,98.70
2022-09-18T05:54:28.863Z,98.24
2022-09-18T05:57:33.309Z,98.90
2022-09-18T06:00:35.943Z,98.96
2022-09-18T06:03:44.807Z,99.19
2022-09-18T06:06:48.389Z,99.79
2022-09-18T06:09:50.454Z,100.00
2022-09-18T06:13:13.329Z,99.73
2022-09-18T06:16:20.469Z,99.75
2022-09-18T06:19:31.914Z,99.42
2022-09-18T06:22:35.889Z,99.66
2022-09-18T06:25:38.297Z,99.79
2022-09-18T06:28:43.357Z,98.95
2022-09-18T06:31:45.975Z,98.87
2022-09-18T06:34:53.722Z,98.33
2022-09-18T06:37:56.816Z,98.34
2022-09-18T06:41:19.320Z,97.33
2022-09-18T06:44:26.314Z,97.40
2022-09-18T06:47:39.015Z,96.82
2022-09-18T06:50:42.577Z,97.13
2022-09-18T06:53:45.010Z,96.76
2022-09-18T06:56:48.055Z,96.48
2022-09-18T06:59:52.442Z,96.22
2022-09-18T07:03:00.115Z,96.12
2022-09-18T07:06:22.233Z,97.45
2022-09-18T07:09:27.043Z,97.26
2022-09-18T07:12:29.544Z,97.14
2022-09-18T07:15:32.432Z,97.13
2022-09-18T07:18:35.098Z,96.66
2022-09-18T07:21:40.169Z,96.41
2022-09-18T07:24:42.624Z,95.88
2022-09-18T07:27:45.044Z,94.73
2022-09-18T07:30:48.626Z,94.82
2022-09-18T07:33:55.026Z,94.92
2022-09-18T07:37:01.222Z,94.73
2022-09-18T07:40:07.375Z,95.10
2022-09-18T07:43:27.802Z,95.62
2022-09-18T07:46:31.136Z,96.46
2022-09-18T07:49:38.954Z,96.60
2022-09-18T07:52:55.120Z,95.85
2022-09-18T07:56:01.720Z,96.44
2022-09-18T07:59:04.442Z,95.97
2022-09-18T08:02:08.670Z,96.36
2022-09-18T08:05:14.258Z,96.25
2022-09-18T08:08:24.635Z,95.93
2022-09-18T08:11:45.508Z,96.94
2022-09-18T08:15:10.968Z,97.38
2022-09-18T08:18:31.532Z,98.72
2022-09-18T08:21:42.868Z,97.31
2022-09-18T08:24:47.791Z,96.62
2022-09-18T08:27:50.156Z,95.81
2022-09-18T08:31:02.603Z,95.11
2022-09-18T08:34:04.904Z,95.42
2022-09-18T08:37:07.244Z,94.55
2022-09-18T08:40:46.595Z,94.68
2022-09-18T08:44:10.491Z,94.29
2022-09-18T08:47:40.669Z,96.15
2022-09-18T08:50:52.855Z,94.65
2022-09-18T08:53:59.402Z,93.16
2022-09-18T08:57:23.198Z,93.79
2022-09-18T09:00:46.746Z,91.41
2022-09-18T09:04:06.918Z,91.52
2022-09-18T09:07:47.185Z,90.40
2022-09-18T09:10:55.434Z,90.22
2022-09-18T09:14:46.007Z,87.36
2022-09-18T09:17:53.739Z,86.92
2022-09-18T09:21:05.250Z,86.86
2022-09-18T09:24:32.643Z,86.78
2022-09-18T09:28:04.057Z,81.71
2022-09-18T09:31:29.739Z,80.20
2022-09-18T09:35:25.402Z,79.99
2022-09-18T09:39:08.232Z,76.70
2022-09-18T09:42:32.178Z,76.64
2022-09-18T09:45:55.774Z,75.47
2022-09-18T09:49:25.212Z,74.75
2022-09-18T09:52:29.443Z,73.27
2022-09-18T09:56:10.593Z,72.28
2022-09-18T09:59:32.105Z,71.62
2022-09-18T10:03:20.344Z,67.71
2022-09-18T10:07:02.652Z,67.71
2022-09-18T10:10:21.438Z,69.48
2022-09-18T10:14:06.875Z,68.01
2022-09-18T10:17:11.522Z,66.62
2022-09-18T10:20:17.159Z,68.10
2022-09-18T10:23:33.801Z,67.44
2022-09-18T10:26:43.807Z,67.50
2022-09-18T10:29:46.739Z,66.67
2022-09-18T10:32:57.334Z,66.36
2022-09-18T10:36:29.891Z,65.47
2022-09-18T10:39:37.194Z,66.44
2022-09-18T10:42:43.023Z,67.81
2022-09-18T10:45:56.845Z,65.41
2022-09-18T10:49:24.976Z,65.94
2022-09-18T10:52:36.973Z,66.17
2022-09-18T10:55:56.052Z,66.77
2022-09-18T10:59:13.937Z,65.86
2022-09-18T11:02:20.976Z,64.43
2022-09-18T11:05:36.959Z,62.46
2022-09-18T11:08:43.682Z,63.41
2022-09-18T11:11:51.629Z,63.07
2022-09-18T11:15:03.095Z,64.01
2022-09-18T11:18:08.234Z,61.68
2022-09-18T11:21:12.508Z,62.45
2022-09-18T11:24:25.310Z,63.27
2022-09-18T11:27:45.735Z,59.11
2022-09-18T11:31:00.770Z,61.16
2022-09-18T11:34:06.384Z,61.02
2022-09-18T11:37:12.977Z,62.25
2022-09-18T11:40:29.555Z,62.38
2022-09-18T11:43:37.955Z,61.64
2022-09-18T11:46:51.943Z,61.59
2022-09-18T11:50:05.621Z,62.21
2022-09-18T11:53:13.194Z,63.67
2022-09-18T11:56:39.561Z,63.99
2022-09-18T11:59:55.345Z,63.49
2022-09-18T12:03:07.155Z,62.93
2022-09-18T12:06:23.811Z,63.35
2022-09-18T12:09:36.553Z,63.33
2022-09-18T12:12:44.692Z,63.97
2022-09-18T12:15:57.552Z,64.17
2022-09-18T12:19:38.349Z,63.49
2022-09-18T12:22:54.187Z,64.57
2022-09-18T12:26:21.246Z,64.17
2022-09-18T12:29:34.484Z,65.02
2022-09-18T12:32:58.542Z,63.39
2022-09-18T12:36:04.292Z,63.20
2022-09-18T12:39:35.478Z,63.82
2022-09-18T12:42:57.964Z,65.87
2022-09-18T12:46:27.952Z,65.40
2022-09-18T12:49:56.947Z,66.75
2022-09-18T12:53:09.577Z,66.19
2022-09-18T12:56:15.334Z,66.51
2022-09-18T12:59:47.188Z,66.62
2022-09-18T13:02:54.195Z,67.25
2022-09-18T13:06:20.357Z,66.77
2022-09-18T13:09:28.422Z,66.29
2022-09-18T13:12:58.828Z,66.20
2022-09-18T13:16:08.048Z,66.21
2022-09-18T13:20:05.690Z,64.69
2022-09-18T13:23:17.961Z,64.99
2022-09-18T13:26:22.501Z,65.62
2022-09-18T13:29:48.156Z,65.95
2022-09-18T13:32:50.345Z,66.91
2022-09-18T13:35:57.406Z,66.84
2022-09-18T13:39:22.016Z,66.71
2022-09-18T13:42:36.352Z,67.11
2022-09-18T13:45:38.872Z,67.43
2022-09-18T13:48:42.656Z,67.84
2022-09-18T13:51:45.112Z,68.12
2022-09-18T13:55:16.293Z,68.59
2022-09-18T13:58:50.405Z,69.67
2022-09-18T14:01:55.943Z,69.42
2022-09-18T14:05:19.940Z,69.18
2022-09-18T14:08:26.041Z,69.57
2022-09-18T14:11:28.252Z,69.70
2022-09-18T14:14:31.217Z,70.03
2022-09-18T14:17:35.049Z,70.12
2022-09-18T14:20:38.313Z,70.83
2022-09-18T14:23:46.515Z,70.85
2022-09-18T14:26:57.998Z,71.63
2022-09-18T14:30:14.030Z,72.17
2022-09-18T14:33:21.126Z,73.33
2022-09-18T14:36:23.305Z,73.59
2022-09-18T14:39:27.955Z,74.24
2022-09-18T14:42:38.828Z,74.05
2022-09-18T14:45:41.565Z,74.40
2022-09-18T14:48:43.715Z,74.99
2022-09-18T14:52:03.228Z,75.33
2022-09-18T14:55:12.225Z,75.25
2022-09-18T14:58:18.536Z,76.48
2022-09-18T15:01:25.199Z,76.36
2022-09-18T15:04:28.383Z,76.16
2022-09-18T15:08:13.069Z,76.67
2022-09-18T15:11:17.106Z,76.89
2022-09-18T15:14:28.626Z,76.46
2022-09-18T15:17:33.774Z,76.23
2022-09-18T15:20:35.960Z,77.10
2022-09-18T15:23:38.482Z,76.40
2022-09-18T15:26:45.480Z,76.26
2022-09-18T15:29:56.724Z,76.59
2022-09-18T15:33:07.708Z,76.35
2022-09-18T15:36:33.958Z,76.75
2022-09-18T15:39:38.691Z,77.28
2022-09-18T15:42:51.960Z,76.93
2022-09-18T15:46:26.939Z,77.41
2022-09-18T15:49:30.988Z,77.74
2022-09-18T15:52:42.326Z,77.68
2022-09-18T15:55:53.997Z,78.26
2022-09-18T15:59:01.103Z,78.73
2022-09-18T16:02:43.577Z,78.45
2022-09-18T16:05:56.790Z,78.20
2022-09-18T16:09:00.459Z,78.34
2022-09-18T16:12:31.285Z,78.43
2022-09-18T16:15:36.736Z,78.71
2022-09-18T16:19:17.620Z,78.04
2022-09-18T16:22:20.153Z,79.27
2022-09-18T16:25:26.359Z,79.20
2022-09-18T16:28:30.815Z,79.27
2022-09-18T16:31:35.994Z,78.83
2022-09-18T16:34:38.620Z,78.94
2022-09-18T16:37:41.885Z,78.80
2022-09-18T16:40:44.849Z,79.60
2022-09-18T16:43:47.161Z,79.85
2022-09-18T16:46:58.826Z,79.70
2022-09-18T16:50:01.682Z,79.78
2022-09-18T16:53:03.976Z,79.36
2022-09-18T16:56:10.022Z,80.48
2022-09-18T16:59:12.277Z,80.16
2022-09-18T17:02:16.565Z,79.42
2022-09-18T17:05:18.789Z,79.99
2022-09-18T17:08:20.962Z,80.58
2022-09-18T17:11:23.674Z,80.25
2022-09-18T17:14:31.294Z,79.50
2022-09-18T17:17:34.101Z,79.78
2022-09-18T17:20:37.173Z,80.02
2022-09-18T17:23:39.681Z,80.00
2022-09-18T17:26:46.323Z,79.56
2022-09-18T17:29:49.204Z,79.94
2022-09-18T17:32:51.446Z,80.20
2022-09-18T17:35:53.843Z,79.97
2022-09-18T17:39:02.188Z,80.41
2022-09-18T17:42:05.162Z,81.29
2022-09-18T17:45:09.697Z,81.35
2022-09-18T17:48:12.105Z,81.82
2022-09-18T17:51:18.594Z,82.47
2022-09-18T17:54:21.342Z,85.77
2022-09-18T17:57:24.193Z,87.18
2022-09-18T18:00:27.311Z,89.03
2022-09-18T18:03:29.643Z,89.39
2022-09-18T18:06:32.641Z,89.53
2022-09-18T18:09:36.423Z,90.96
2022-09-18T18:12:40.721Z,90.22
2022-09-18T18:15:44.069Z,90.47
2022-09-18T18:18:46.541Z,91.29
2022-09-18T18:21:49.083Z,91.77
2022-09-18T18:24:52.536Z,92.33
2022-09-18T18:27:55.366Z,91.73
2022-09-18T18:31:06.396Z,91.13
2022-09-18T18:34:10.857Z,90.75
2022-09-18T18:37:14.655Z,90.35
2022-09-18T18:40:17.040Z,89.93
2022-09-18T18:43:23.118Z,89.97
2022-09-18T18:46:27.125Z,89.91
2022-09-18T18:49:31.169Z,89.39
2022-09-18T18:52:34.052Z,89.36
2022-09-18T18:55:37.170Z,89.20
2022-09-18T18:58:39.975Z,89.29
2022-09-18T19:01:44.044Z,90.03
2022-09-18T19:04:46.414Z,89.86
2022-09-18T19:07:50.971Z,90.54
2022-09-18T19:10:57.811Z,90.91
2022-09-18T19:14:00.585Z,91.88
2022-09-18T19:17:02.717Z,91.12
2022-09-18T19:20:06.315Z,91.23
2022-09-18T19:23:13.242Z,91.89
2022-09-18T19:26:16.333Z,93.01
2022-09-18T19:29:21.617Z,93.06
2022-09-18T19:32:24.061Z,92.47
2022-09-18T19:35:26.055Z,92.53
2022-09-18T19:38:28.224Z,92.59
2022-09-18T19:41:52.212Z,92.63
2022-09-18T19:44:59.084Z,91.89
2022-09-18T19:48:02.184Z,92.56
2022-09-18T19:51:04.805Z,92.58
2022-09-18T19:54:06.915Z,92.42
2022-09-18T19:57:09.165Z,92.84
2022-09-18T20:00:12.593Z,93.11
2022-09-18T20:03:15.504Z,93.56
2022-09-18T20:06:18.274Z,94.26
2022-09-18T20:09:20.781Z,93.79
2022-09-18T20:12:22.849Z,93.98
2022-09-18T20:15:25.557Z,93.46
2022-09-18T20:18:27.817Z,93.73
2022-09-18T20:21:30.067Z,93.37
2022-09-18T20:24:34.906Z,93.47
2022-09-18T20:27:39.615Z,93.52
2022-09-18T20:30:41.741Z,94.07
2022-09-18T20:33:48.295Z,94.94
2022-09-18T20:36:55.050Z,95.02
2022-09-18T20:39:57.911Z,94.01
2022-09-18T20:43:01.771Z,93.70
2022-09-18T20:46:06.691Z,93.59
2022-09-18T20:49:08.736Z,94.82
2022-09-18T20:52:14.598Z,95.37
2022-09-18T20:55:17.593Z,94.48
2022-09-18T20:58:19.941Z,94.34
2022-09-18T21:01:26.808Z,94.77
2022-09-18T21:04:29.543Z,95.65
2022-09-18T21:07:32.642Z,95.62
2022-09-18T21:10:35.195Z,95.36
2022-09-18T21:13:43.488Z,95.73
2022-09-18T21:16:45.983Z,96.61
2022-09-18T21:19:50.573Z,96.89
2022-09-18T21:23:15.955Z,97.27
2022-09-18T21:26:18.141Z,97.10
2022-09-18T21:29:22.854Z,98.82
2022-09-18T21:32:24.897Z,98.48
2022-09-18T21:35:27.350Z,97.98
2022-09-18T21:38:30.275Z,98.08
2022-09-18T21:41:37.585Z,98.78
2022-09-18T21:44:39.707Z,97.87
2022-09-18T21:47:42.186Z,96.98
2022-09-18T21:50:44.244Z,96.81
2022-09-18T21:53:46.707Z,95.53
2022-09-18T21:56:51.331Z,96.55
2022-09-18T21:59:53.622Z,96.08
2022-09-18T22:02:55.789Z,96.04
2022-09-18T22:06:00.176Z,95.29
2022-09-18T22:09:13.618Z,95.44
2022-09-18T22:12:15.958Z,95.02
2022-09-18T22:15:18.091Z,94.84
2022-09-18T22:18:20.284Z,94.60
2022-09-18T22:21:25.852Z,94.23
2022-09-18T22:24:28.668Z,94.43
2022-09-18T22:27:30.786Z,94.07
2022-09-18T22:30:33.071Z,93.45
2022-09-18T22:33:35.217Z,94.02
2022-09-18T22:36:37.401Z,94.18
2022-09-18T22:39:39.366Z,95.55
2022-09-18T22:42:41.625Z,95.56
2022-09-18T22:45:44.485Z,96.32
2022-09-18T22:48:47.525Z,96.30
2022-09-18T22:51:50.604Z,97.21
2022-09-18T22:54:52.869Z,97.17
2022-09-18T22:57:54.985Z,96.47
2022-09-18T23:01:06.097Z,97.33
2022-09-18T23:04:08.714Z,96.69
2022-09-18T23:07:11.167Z,97.15
2022-09-18T23:10:13.202Z,96.69
2022-09-18T23:13:16.880Z,96.96
2022-09-18T23:16:19.667Z,97.70
2022-09-18T23:19:29.389Z,98.15
2022-09-18T23:22:31.402Z,97.88
2022-09-18T23:25:36.324Z,97.28
2022-09-18T23:28:41.712Z,98.21
2022-09-18T23:31:45.796Z,98.15
2022-09-18T23:34:47.913Z,98.22
2022-09-18T23:37:50.159Z,98.02
2022-09-18T23:41:00.006Z,98.29
2022-09-18T23:44:03.567Z,98.15
2022-09-18T23:47:05.726Z,98.39
2022-09-18T23:50:08.433Z,97.82
2022-09-18T23:53:10.471Z,97.02
2022-09-18T23:56:16.485Z,96.35
2022-09-18T23:59:22.872Z,96.26
